Crump, Tennessee
Current Conditions -  °F | °C
As of 11:55 PM on Wednesday 28 Jan 2015 (Local Time) from KSNH Reporting Station
Clear Clear  
Wind Chill: 40°   Ceiling: Unl
Heat Index: 45°   Visibility: 10mi
Dew Point: 28°   Wind: 9mph
Humidity: 53%   Direction: 170°S
Pressure: 30.13"   Gusts: NA
Location:  35.22°N, 88.32°W
Report Text: KSNH 290555Z AUTO 17008KT 10SM CLR 07/M02 A3013 RMK
Loading
Personal Weather Stations






























Interactive Weather Map New forecast layout! Learn more

10-Day Weather Forecast

Advertisements
Track Severe Weather on mobile